Terminal Aerodrome Forecast
Issued by NWS

Home | Current Version | Previous Version | Text Only | Print | Product List | Glossary On
Versions: 1 2 3 4 5 6 7 8 9 10 11 12 13 14 15 16 17 18 19 20 21 22 23 24 25 26 27 28 29 30 31 32 33 34 35 36 37 38 39 40 41 42 43 44 45 46 47 48 49 50
000
FTUS46 KOTX 210708 AAA
TAFCOE
TAF AMD
KCOE 210708Z 2107/2206 20003KT P6SM VCSH FEW019 OVC035
      TEMPO 2107/2111 BKN020
     FM211300 21006KT P6SM -RA BKN016 BKN040 OVC060
     FM211800 20007KT P6SM -SHRA BKN024 OVC050
     FM212200 02005KT P6SM VCSH SCT030 BKN050
     FM212300 03005KT P6SM SCT050 BKN080=

USA.gov is the U.S. government's official web portal to all federal, state and local government web resources and services.